createdAt,value
2022-11-16T00:01:24.358Z,10.89
2022-11-16T00:03:53.963Z,10.90
2022-11-16T00:06:23.088Z,10.92
2022-11-16T00:09:05.152Z,10.93
2022-11-16T00:11:22.194Z,10.92
2022-11-16T00:13:52.180Z,10.96
2022-11-16T00:16:22.263Z,10.97
2022-11-16T00:18:56.222Z,10.98
2022-11-16T00:21:22.443Z,10.99
2022-11-16T00:23:53.167Z,11.02
2022-11-16T00:26:23.217Z,11.06
2022-11-16T00:28:54.000Z,11.05
2022-11-16T00:31:23.738Z,11.06
2022-11-16T00:36:22.378Z,11.08
2022-11-16T00:38:52.860Z,11.07
2022-11-16T00:41:22.266Z,11.08
2022-11-16T00:43:52.381Z,11.05
2022-11-16T00:46:22.479Z,11.08
2022-11-16T00:51:22.249Z,11.09
2022-11-16T00:56:22.453Z,11.13
2022-11-16T00:58:52.240Z,11.11
2022-11-16T01:01:22.474Z,11.13
2022-11-16T01:06:22.575Z,11.11
2022-11-16T01:08:52.484Z,11.14
2022-11-16T01:11:32.113Z,11.16
2022-11-16T01:13:53.217Z,11.17
2022-11-16T01:16:23.337Z,11.19
2022-11-16T01:18:54.371Z,11.17
2022-11-16T01:21:22.579Z,11.23
2022-11-16T01:23:53.535Z,11.21
2022-11-16T01:26:22.457Z,11.22
2022-11-16T01:31:22.490Z,11.23
2022-11-16T01:33:53.229Z,11.29
2022-11-16T01:38:52.230Z,11.26
2022-11-16T01:41:24.217Z,11.28
2022-11-16T01:43:55.184Z,11.30
2022-11-16T01:46:23.936Z,11.34
2022-11-16T01:48:58.784Z,11.31
2022-11-16T01:53:52.801Z,11.35
2022-11-16T01:56:24.558Z,11.33
2022-11-16T01:58:52.669Z,11.29
2022-11-16T02:01:22.334Z,11.31
2022-11-16T02:03:52.512Z,11.33
2022-11-16T02:06:32.122Z,11.35
2022-11-16T02:09:17.032Z,11.26
2022-11-16T02:11:40.480Z,11.29
2022-11-16T02:14:08.481Z,11.31
2022-11-16T02:16:35.029Z,11.33
2022-11-16T02:19:12.013Z,11.35
2022-11-16T02:21:32.880Z,11.34
2022-11-16T02:24:06.704Z,11.35
2022-11-16T02:26:37.025Z,11.34
2022-11-16T02:31:26.687Z,11.37
2022-11-16T02:33:55.279Z,11.40
2022-11-16T02:36:24.899Z,11.38
2022-11-16T02:38:58.121Z,11.34
2022-11-16T02:41:25.578Z,11.40
2022-11-16T02:43:59.129Z,11.43
2022-11-16T02:46:28.502Z,11.44
2022-11-16T02:48:58.269Z,11.43
2022-11-16T02:56:22.995Z,11.46
2022-11-16T02:58:52.721Z,11.44
2022-11-16T03:01:29.713Z,11.43
2022-11-16T03:06:25.663Z,11.47
2022-11-16T03:08:59.786Z,11.49
2022-11-16T03:13:56.505Z,11.51
2022-11-16T03:18:55.745Z,11.52
2022-11-16T03:23:53.010Z,11.53
2022-11-16T03:26:31.284Z,11.56
2022-11-16T03:29:00.341Z,11.61
2022-11-16T03:31:27.092Z,11.63
2022-11-16T03:33:55.517Z,11.59
2022-11-16T03:36:26.663Z,11.57
2022-11-16T03:38:55.386Z,11.56
2022-11-16T03:41:24.245Z,11.54
2022-11-16T03:46:22.548Z,11.58
2022-11-16T03:48:56.236Z,11.60
2022-11-16T03:53:52.355Z,11.61
2022-11-16T03:56:22.553Z,11.59
2022-11-16T03:58:52.295Z,11.57
2022-11-16T04:01:22.358Z,11.60
2022-11-16T04:03:52.259Z,11.58
2022-11-16T04:06:32.184Z,11.59
2022-11-16T04:09:02.179Z,11.62
2022-11-16T04:11:32.314Z,11.61
2022-11-16T04:19:02.694Z,11.62
2022-11-16T04:21:35.561Z,11.63
2022-11-16T04:24:02.190Z,11.66
2022-11-16T04:26:32.823Z,11.69
2022-11-16T04:28:52.290Z,11.68
2022-11-16T04:31:32.161Z,11.70
2022-11-16T04:34:02.752Z,11.72
2022-11-16T04:36:32.487Z,11.73
2022-11-16T04:41:32.121Z,11.72
2022-11-16T04:43:52.448Z,11.71
2022-11-16T04:46:32.174Z,11.73
2022-11-16T04:48:52.392Z,11.76
2022-11-16T04:51:22.257Z,11.78
2022-11-16T04:53:52.277Z,11.79
2022-11-16T04:56:22.383Z,11.81
2022-11-16T04:58:52.328Z,11.77
2022-11-16T05:01:32.166Z,11.78
2022-11-16T05:06:22.262Z,11.75
2022-11-16T05:08:52.492Z,11.79
2022-11-16T05:13:52.286Z,11.81
2022-11-16T05:19:02.483Z,11.80
2022-11-16T05:24:02.216Z,11.82
2022-11-16T05:26:22.282Z,11.83
2022-11-16T05:28:52.291Z,11.82
2022-11-16T05:31:22.484Z,11.81
2022-11-16T05:33:52.287Z,11.80
2022-11-16T05:38:56.083Z,11.78
2022-11-16T05:41:22.415Z,11.79
2022-11-16T05:43:53.397Z,11.80
2022-11-16T05:46:22.827Z,11.79
2022-11-16T05:48:52.320Z,11.74
2022-11-16T05:51:22.524Z,11.76
2022-11-16T05:53:52.329Z,11.78
2022-11-16T05:56:22.480Z,11.81
2022-11-16T05:58:52.792Z,11.80
2022-11-16T06:01:22.386Z,11.79
2022-11-16T06:03:52.570Z,11.80
2022-11-16T06:06:22.478Z,11.81
2022-11-16T06:13:53.327Z,11.80
2022-11-16T06:21:22.836Z,11.81
2022-11-16T06:23:52.749Z,11.79
2022-11-16T06:26:22.507Z,11.80
2022-11-16T06:28:54.014Z,11.79
2022-11-16T06:33:52.305Z,11.78
2022-11-16T06:38:52.706Z,11.76
2022-11-16T06:41:22.332Z,11.74
2022-11-16T06:43:52.412Z,11.70
2022-11-16T06:46:23.618Z,11.68
2022-11-16T06:48:52.446Z,11.67
2022-11-16T06:56:22.571Z,11.66
2022-11-16T06:58:54.996Z,11.65
2022-11-16T07:01:22.390Z,11.62
2022-11-16T07:06:22.376Z,11.61
2022-11-16T07:08:52.843Z,11.58
2022-11-16T07:13:52.509Z,11.57
2022-11-16T07:16:22.336Z,11.56
2022-11-16T07:18:52.418Z,11.54
2022-11-16T07:21:22.857Z,11.53
2022-11-16T07:23:52.626Z,11.52
2022-11-16T07:26:22.571Z,11.50
2022-11-16T07:28:52.447Z,11.48
2022-11-16T07:31:22.381Z,11.47
2022-11-16T07:33:53.367Z,11.46
2022-11-16T07:46:46.410Z,11.45
2022-11-16T07:48:52.581Z,11.44
2022-11-16T07:51:22.372Z,11.43
2022-11-16T07:53:54.658Z,11.42
2022-11-16T07:56:22.832Z,11.41
2022-11-16T07:58:52.468Z,11.40
2022-11-16T08:01:22.524Z,11.38
2022-11-16T08:03:53.085Z,11.36
2022-11-16T08:06:25.283Z,11.34
2022-11-16T08:08:58.085Z,11.33
2022-11-16T08:11:23.067Z,11.31
2022-11-16T08:16:22.666Z,11.29
2022-11-16T08:18:52.458Z,11.30
2022-11-16T08:21:22.362Z,11.29
2022-11-16T08:28:54.804Z,11.27
2022-11-16T08:36:23.109Z,11.28
2022-11-16T08:41:22.740Z,11.30
2022-11-16T08:43:53.436Z,11.33
2022-11-16T08:46:22.465Z,11.35
2022-11-16T08:48:55.024Z,11.37
2022-11-16T08:51:23.877Z,11.40
2022-11-16T08:53:55.325Z,11.44
2022-11-16T08:56:22.460Z,11.48
2022-11-16T08:58:58.164Z,11.51
2022-11-16T09:01:25.279Z,11.56
2022-11-16T09:03:53.021Z,11.61
2022-11-16T09:06:23.350Z,11.66
2022-11-16T09:08:52.441Z,11.69
2022-11-16T09:11:24.353Z,11.70
2022-11-16T09:13:54.111Z,11.73
2022-11-16T09:16:22.847Z,11.79
2022-11-16T09:18:53.547Z,11.81
2022-11-16T09:21:24.619Z,11.85
2022-11-16T09:23:53.803Z,11.91
2022-11-16T09:26:24.171Z,11.88
2022-11-16T09:28:54.966Z,11.93
2022-11-16T09:31:23.759Z,12.03
2022-11-16T09:33:52.615Z,12.10
2022-11-16T09:39:23.632Z,12.16
2022-11-16T09:41:38.222Z,12.25
2022-11-16T09:44:01.873Z,12.30
2022-11-16T09:46:29.319Z,12.35
2022-11-16T09:48:57.283Z,12.38
2022-11-16T09:51:26.149Z,12.33
2022-11-16T09:53:57.394Z,12.40
2022-11-16T09:56:24.694Z,12.35
2022-11-16T09:59:00.405Z,12.28
2022-11-16T10:01:26.424Z,12.33
2022-11-16T10:04:00.339Z,12.35
2022-11-16T10:08:55.677Z,12.32
2022-11-16T10:11:35.201Z,12.28
2022-11-16T10:14:03.965Z,12.19
2022-11-16T10:16:32.629Z,12.14
2022-11-16T10:18:57.995Z,12.09
2022-11-16T10:21:35.139Z,12.12
2022-11-16T10:24:08.524Z,12.10
2022-11-16T10:26:29.359Z,12.12
2022-11-16T10:29:04.406Z,12.06
2022-11-16T10:31:36.726Z,12.08
2022-11-16T10:36:26.641Z,12.10
2022-11-16T10:38:55.204Z,12.09
2022-11-16T10:41:30.687Z,12.10
2022-11-16T10:43:55.514Z,12.06
2022-11-16T10:49:01.252Z,12.05
2022-11-16T10:53:53.245Z,12.06
2022-11-16T10:56:26.916Z,12.03
2022-11-16T10:58:54.864Z,11.96
2022-11-16T11:01:35.521Z,11.97
2022-11-16T11:03:52.566Z,12.00
2022-11-16T11:06:24.865Z,11.97
2022-11-16T11:08:52.623Z,11.98
2022-11-16T11:11:32.554Z,11.90
2022-11-16T11:14:04.124Z,11.97
2022-11-16T11:16:22.434Z,11.93
2022-11-16T11:18:52.464Z,11.97
2022-11-16T11:21:26.068Z,11.98
2022-11-16T11:23:55.236Z,12.00
2022-11-16T11:26:34.690Z,11.96
2022-11-16T11:28:53.015Z,11.99
2022-11-16T11:31:26.230Z,12.07
2022-11-16T11:33:54.342Z,12.12
2022-11-16T11:36:25.394Z,12.16
2022-11-16T11:38:56.555Z,12.22
2022-11-16T11:41:23.313Z,12.25
2022-11-16T11:44:02.289Z,12.27
2022-11-16T11:46:50.202Z,12.20
2022-11-16T11:48:57.809Z,12.19
2022-11-16T11:51:28.800Z,12.13
2022-11-16T11:53:54.955Z,12.06
2022-11-16T11:56:23.793Z,12.07
2022-11-16T11:58:53.755Z,12.11
2022-11-16T12:01:42.385Z,12.14
2022-11-16T12:09:08.043Z,12.17
2022-11-16T12:11:29.361Z,12.28
2022-11-16T12:14:07.404Z,12.40
2022-11-16T12:16:28.164Z,12.46
2022-11-16T12:19:12.263Z,12.45
2022-11-16T12:21:37.463Z,12.44
2022-11-16T12:24:06.066Z,12.45
2022-11-16T12:26:32.290Z,12.56
2022-11-16T12:29:03.078Z,12.94
2022-11-16T12:31:42.238Z,13.14
2022-11-16T12:34:01.775Z,13.25
2022-11-16T12:36:34.207Z,13.32
2022-11-16T12:39:03.794Z,13.28
2022-11-16T12:41:42.519Z,13.29
2022-11-16T12:43:58.808Z,13.39
2022-11-16T12:46:29.136Z,13.67
2022-11-16T12:49:09.943Z,14.06
2022-11-16T12:51:36.326Z,14.44
2022-11-16T12:54:10.118Z,14.82
2022-11-16T12:56:34.232Z,15.05
2022-11-16T12:59:10.019Z,15.48
2022-11-16T13:01:31.047Z,15.69
2022-11-16T13:03:56.187Z,15.71
2022-11-16T13:06:27.043Z,15.87
2022-11-16T13:09:02.429Z,15.99
2022-11-16T13:11:26.611Z,15.95
2022-11-16T13:13:57.989Z,15.90
2022-11-16T13:18:53.851Z,15.96
2022-11-16T13:21:36.217Z,16.08
2022-11-16T13:24:05.845Z,16.24
2022-11-16T13:26:29.487Z,16.36
2022-11-16T13:28:57.806Z,16.47
2022-11-16T13:31:29.534Z,16.62
2022-11-16T13:33:58.037Z,16.76
2022-11-16T13:36:44.087Z,16.93
2022-11-16T13:41:27.848Z,17.13
2022-11-16T13:43:52.649Z,17.29
2022-11-16T13:46:54.184Z,17.30
2022-11-16T13:51:23.763Z,17.29
2022-11-16T13:56:28.376Z,17.22
2022-11-16T13:58:54.833Z,17.27
2022-11-16T14:01:22.958Z,17.25
2022-11-16T14:04:12.611Z,17.33
2022-11-16T14:06:42.254Z,17.39
2022-11-16T14:08:53.483Z,17.46
2022-11-16T14:13:53.030Z,17.35
2022-11-16T14:16:42.263Z,17.27
2022-11-16T14:18:56.031Z,17.24
2022-11-16T14:21:38.585Z,17.22
2022-11-16T14:24:05.570Z,17.11
2022-11-16T14:26:26.221Z,16.93
2022-11-16T14:29:09.975Z,16.65
2022-11-16T14:31:24.325Z,16.44
2022-11-16T14:33:55.822Z,16.17
2022-11-16T14:36:35.113Z,15.93
2022-11-16T14:38:52.575Z,15.57
2022-11-16T14:41:24.442Z,15.36
2022-11-16T14:43:55.515Z,15.11
2022-11-16T14:46:26.088Z,14.92
2022-11-16T14:48:55.221Z,14.79
2022-11-16T14:51:26.079Z,14.54
2022-11-16T14:53:58.734Z,14.38
2022-11-16T14:56:22.687Z,14.20
2022-11-16T14:58:55.031Z,13.99
2022-11-16T15:01:25.768Z,13.83
2022-11-16T15:03:56.617Z,13.74
2022-11-16T15:06:24.760Z,13.63
2022-11-16T15:08:58.484Z,13.43
2022-11-16T15:11:36.029Z,13.32
2022-11-16T15:13:53.978Z,13.18
2022-11-16T15:16:23.748Z,13.09
2022-11-16T15:18:57.738Z,12.95
2022-11-16T15:21:23.864Z,12.85
2022-11-16T15:24:23.439Z,12.76
2022-11-16T15:26:23.139Z,12.60
2022-11-16T15:28:54.287Z,12.49
2022-11-16T15:31:23.851Z,12.32
2022-11-16T15:33:52.561Z,12.25
2022-11-16T15:36:30.424Z,12.07
2022-11-16T15:38:54.510Z,11.95
2022-11-16T15:41:23.405Z,11.85
2022-11-16T15:44:13.278Z,11.83
2022-11-16T15:46:25.004Z,11.75
2022-11-16T15:48:53.766Z,11.62
2022-11-16T15:51:22.849Z,11.60
2022-11-16T15:53:54.285Z,11.52
2022-11-16T15:56:29.629Z,11.45
2022-11-16T15:58:54.235Z,11.30
2022-11-16T16:01:23.832Z,11.14
2022-11-16T16:03:56.904Z,11.05
2022-11-16T16:06:42.419Z,11.02
2022-11-16T16:09:03.619Z,10.86
2022-11-16T16:11:27.264Z,10.74
2022-11-16T16:16:27.104Z,10.67
2022-11-16T16:18:55.383Z,10.58
2022-11-16T16:21:23.907Z,10.48
2022-11-16T16:23:54.475Z,10.40
2022-11-16T16:26:22.646Z,10.36
2022-11-16T16:28:52.569Z,10.26
2022-11-16T16:31:22.825Z,10.23
2022-11-16T16:33:54.575Z,10.15
2022-11-16T16:36:22.526Z,10.07
2022-11-16T16:38:52.674Z,9.97
2022-11-16T16:41:24.509Z,9.85
2022-11-16T16:43:52.789Z,9.91
2022-11-16T16:46:22.786Z,9.90
2022-11-16T16:48:52.596Z,9.82
2022-11-16T16:51:22.629Z,9.79
2022-11-16T16:53:52.522Z,9.69
2022-11-16T16:56:22.581Z,9.63
2022-11-16T16:58:53.314Z,9.65
2022-11-16T17:01:22.589Z,9.63
2022-11-16T17:03:52.598Z,9.58
2022-11-16T17:08:52.776Z,9.48
2022-11-16T17:11:23.033Z,9.52
2022-11-16T17:13:52.581Z,9.51
2022-11-16T17:16:22.770Z,9.49
2022-11-16T17:18:54.327Z,9.39
2022-11-16T17:21:22.875Z,9.41
2022-11-16T17:23:53.376Z,9.36
2022-11-16T17:26:23.918Z,9.34
2022-11-16T17:28:54.192Z,9.33
2022-11-16T17:31:23.534Z,9.30
2022-11-16T17:33:52.651Z,9.23
2022-11-16T17:36:22.868Z,9.21
2022-11-16T17:38:52.836Z,9.23
2022-11-16T17:41:22.631Z,9.19
2022-11-16T17:43:53.577Z,9.20
2022-11-16T17:46:23.332Z,9.07
2022-11-16T17:48:52.730Z,9.03
2022-11-16T17:51:24.159Z,8.99
2022-11-16T17:53:52.565Z,8.92
2022-11-16T17:56:25.167Z,8.82
2022-11-16T17:58:54.061Z,8.86
2022-11-16T18:01:23.857Z,8.89
2022-11-16T18:03:53.096Z,8.85
2022-11-16T18:06:24.223Z,8.81
2022-11-16T18:08:53.118Z,8.80
2022-11-16T18:16:25.516Z,8.78
2022-11-16T18:18:56.060Z,8.72
2022-11-16T18:21:23.377Z,8.71
2022-11-16T18:23:53.131Z,8.74
2022-11-16T18:28:52.854Z,8.73
2022-11-16T18:31:24.100Z,8.72
2022-11-16T18:33:52.750Z,8.69
2022-11-16T18:36:22.650Z,8.66
2022-11-16T18:38:52.663Z,8.65
2022-11-16T18:41:25.143Z,8.67
2022-11-16T18:43:54.963Z,8.65
2022-11-16T18:46:24.536Z,8.59
2022-11-16T18:48:52.767Z,8.64
2022-11-16T18:51:26.089Z,8.62
2022-11-16T18:53:53.135Z,8.59
2022-11-16T18:56:23.899Z,8.53
2022-11-16T18:58:53.596Z,8.51
2022-11-16T19:06:23.321Z,8.48
2022-11-16T19:08:55.992Z,8.51
2022-11-16T19:11:23.524Z,8.45
2022-11-16T19:13:54.949Z,8.46
2022-11-16T19:16:24.065Z,8.45
2022-11-16T19:18:52.717Z,8.43
2022-11-16T19:21:22.704Z,8.48
2022-11-16T19:26:25.003Z,8.53
2022-11-16T19:28:53.649Z,8.51
2022-11-16T19:31:25.049Z,8.40
2022-11-16T19:33:54.079Z,8.39
2022-11-16T19:36:23.497Z,8.33
2022-11-16T19:38:53.382Z,8.32
2022-11-16T19:41:24.555Z,8.30
2022-11-16T19:43:56.176Z,8.36
2022-11-16T19:46:23.382Z,8.40
2022-11-16T19:51:24.721Z,8.42
2022-11-16T19:53:53.207Z,8.38
2022-11-16T19:56:23.429Z,8.41
2022-11-16T20:01:25.446Z,8.37
2022-11-16T20:03:54.217Z,8.40
2022-11-16T20:06:25.553Z,8.48
2022-11-16T20:08:54.899Z,8.51
2022-11-16T20:11:24.468Z,8.46
2022-11-16T20:13:54.707Z,8.54
2022-11-16T20:16:24.501Z,8.53
2022-11-16T20:18:53.435Z,8.50
2022-11-16T20:21:25.409Z,8.42
2022-11-16T20:23:52.983Z,8.39
2022-11-16T20:26:24.908Z,8.42
2022-11-16T20:31:24.526Z,8.43
2022-11-16T20:33:54.787Z,8.37
2022-11-16T20:36:24.190Z,8.33
2022-11-16T20:38:53.168Z,8.38
2022-11-16T20:41:25.215Z,8.44
2022-11-16T20:43:54.248Z,8.40
2022-11-16T20:46:24.390Z,8.29
2022-11-16T20:48:53.582Z,8.26
2022-11-16T20:53:52.876Z,8.23
2022-11-16T20:56:23.005Z,8.16
2022-11-16T20:58:53.097Z,8.12
2022-11-16T21:01:27.485Z,8.03
2022-11-16T21:03:53.749Z,8.16
2022-11-16T21:06:22.878Z,8.11
2022-11-16T21:08:53.274Z,8.06
2022-11-16T21:11:24.792Z,8.14
2022-11-16T21:14:02.768Z,8.10
2022-11-16T21:16:22.685Z,8.11
2022-11-16T21:18:52.916Z,8.10
2022-11-16T21:21:24.457Z,8.09
2022-11-16T21:23:53.927Z,7.94
2022-11-16T21:26:24.363Z,7.98
2022-11-16T21:28:53.171Z,7.93
2022-11-16T21:31:25.323Z,7.92
2022-11-16T21:33:53.584Z,7.89
2022-11-16T21:36:24.889Z,7.87
2022-11-16T21:41:24.152Z,7.85
2022-11-16T21:43:53.030Z,7.81
2022-11-16T21:46:25.792Z,7.79
2022-11-16T21:48:55.219Z,7.78
2022-11-16T21:51:25.315Z,7.82
2022-11-16T21:53:53.701Z,7.80
2022-11-16T21:56:24.826Z,7.83
2022-11-16T21:58:53.743Z,7.84
2022-11-16T22:01:23.225Z,7.83
2022-11-16T22:04:02.435Z,7.85
2022-11-16T22:06:32.447Z,7.84
2022-11-16T22:08:52.736Z,7.90
2022-11-16T22:11:22.743Z,7.88
2022-11-16T22:13:52.682Z,7.89
2022-11-16T22:16:22.654Z,7.93
2022-11-16T22:18:52.640Z,8.00
2022-11-16T22:21:23.009Z,7.99
2022-11-16T22:23:53.319Z,8.03
2022-11-16T22:26:22.680Z,8.08
2022-11-16T22:28:52.656Z,8.10
2022-11-16T22:31:22.870Z,8.13
2022-11-16T22:33:52.883Z,8.14
2022-11-16T22:36:22.715Z,8.16
2022-11-16T22:38:52.999Z,8.19
